PST,Max TemperatureF,Mean TemperatureF,Min TemperatureF,Max Dew PointF,MeanDew PointF,Min DewpointF,Max Humidity, Mean Humidity, Min Humidity, Max Sea Level PressureIn, Mean Sea Level PressureIn, Min Sea Level PressureIn, Max VisibilityMiles, Mean VisibilityMiles, Min VisibilityMiles, Max Wind SpeedMPH, Mean Wind SpeedMPH, Max Gust SpeedMPH,PrecipitationIn, CloudCover, Events, WindDirDegrees
2014-2-1,23,10,-4,19,14,12,89,70,53,30.25,30.19,30.13,10,10,10,9,3,,T,5,,80
2014-2-2,26,24,22,20,17,13,81,74,66,30.18,30.09,30.01,10,10,10,8,1,,T,7,,308
2014-2-3,24,16,8,22,17,10,88,68,45,30.28,30.13,30.01,10,10,5,7,4,,0.04,8,Snow,13
2014-2-4,13,8,3,18,9,-3,85,61,45,30.61,30.44,30.28,10,9,2,8,4,,0.00,8,Snow,120
2014-2-5,10,3,-5,-4,-9,-14,58,42,28,30.70,30.64,30.56,10,10,10,13,5,,0.00,1,,18
2014-2-6,14,7,0,8,0,-8,83,65,46,30.54,30.18,29.86,10,7,1,13,5,15,0.01,5,Snow,310
2014-2-7,13,9,4,9,6,2,87,74,62,30.04,29.97,29.84,10,8,2,10,6,,0.06,4,Snow,312
2014-2-8,23,17,11,18,14,9,93,80,53,30.25,30.11,30.02,10,5,0,10,6,,0.00,7,Fog-Snow,293
2014-2-9,21,19,17,20,18,17,96,85,75,30.25,30.16,30.04,10,8,2,7,3,,0.02,8,Snow,71
2014-2-10,28,24,20,22,19,14,92,86,78,30.28,30.17,30.01,10,7,1,9,4,,0.20,6,Snow,106
2014-2-11,36,31,25,28,23,17,96,88,79,30.17,30.00,29.76,8,4,0,14,4,21,0.12,5,Fog-Rain,105
2014-2-12,48,42,36,34,30,28,100,86,52,29.78,29.64,29.52,10,4,0,21,5,23,0.12,6,Fog-Rain,282
2014-2-13,46,39,31,33,29,26,85,61,44,30.03,29.91,29.71,10,10,10,25,10,38,0.01,1,Rain,293
2014-2-14,46,39,31,37,32,29,100,86,53,29.95,29.77,29.69,10,6,0,15,4,29,0.04,6,Fog-Rain-Snow,358
2014-2-15,45,38,30,31,30,26,100,93,73,29.96,29.61,29.43,10,3,0,10,4,16,0.31,6,Fog-Snow,291
2014-2-16,41,38,34,32,24,20,82,53,38,29.92,29.79,29.59,10,10,10,20,8,26,T,2,,237
2014-2-17,46,39,32,35,31,26,96,80,55,29.92,29.74,29.66,10,10,2,21,5,33,T,4,Rain,299
2014-2-18,41,35,29,34,28,19,96,76,45,29.95,29.77,29.56,10,10,7,22,6,30,0.27,3,Rain,303
2014-2-19,41,35,28,31,26,21,0,0,0,30.09,29.96,29.76,10,8,0,21,9,0,0.00,3,Fog-Snow,334
2014-2-20,49,38,27,30,26,22,92,69,45,30.06,29.98,29.89,10,10,10,28,12,35,0.00,2,,337
2014-2-21,37,32,27,25,21,17,0,0,0,30.18,30.11,30.03,10,10,10,15,9,0,0.00,3,,330
2014-2-22,38,33,27,26,22,18,0,0,0,30.19,30.13,30.05,10,10,6,7,3,0,T,6,Snow,137
2014-2-23,27,26,24,31,29,27,0,0,0,30.14,30.02,29.97,10,3,0,6,2,0,0.16,8,Fog-Snow,286
2014-2-24,26,24,21,28,26,22,0,0,0,30.33,30.24,30.16,10,4,1,6,4,0,0.25,8,Snow,282
2014-2-25,33,21,9,27,24,19,96,81,54,30.44,30.35,30.29,10,6,0,7,2,99,T,8,Fog-Snow,267
2014-2-26,35,22,9,27,22,18,72,60,38,30.29,30.10,29.88,10,10,10,6,2,,0.00,6,,276
2014-2-27,34,30,26,29,27,25,82,72,58,29.86,29.77,29.72,10,10,10,8,4,,0.01,7,Rain,350
2014-2-28,38,29,20,31,25,18,0,0,0,29.78,29.71,29.63,10,10,10,14,4,0,0.00,7,,123